createdAt,value
2018-05-09T00:01:57.375Z,97.94
2018-05-09T00:04:25.504Z,97.87
2018-05-09T00:06:53.644Z,98.04
2018-05-09T00:09:21.770Z,98.27
2018-05-09T00:11:49.907Z,98.43
2018-05-09T00:14:18.056Z,98.83
2018-05-09T00:16:46.178Z,99.02
2018-05-09T00:19:14.307Z,99.20
2018-05-09T00:21:42.455Z,99.15
2018-05-09T00:24:10.579Z,98.84
2018-05-09T00:26:38.720Z,98.86
2018-05-09T00:29:06.903Z,99.13
2018-05-09T00:31:35.038Z,99.09
2018-05-09T00:34:03.180Z,99.10
2018-05-09T00:36:31.320Z,99.02
2018-05-09T00:38:59.432Z,99.01
2018-05-09T00:41:27.573Z,98.90
2018-05-09T00:43:55.703Z,98.56
2018-05-09T00:46:23.829Z,98.42
2018-05-09T00:48:51.953Z,98.25
2018-05-09T00:51:20.092Z,98.05
2018-05-09T00:53:48.214Z,98.05
2018-05-09T00:56:16.347Z,98.11
2018-05-09T00:58:44.472Z,98.11
2018-05-09T01:01:12.596Z,98.14
2018-05-09T01:03:40.718Z,98.16
2018-05-09T01:06:08.859Z,98.25
2018-05-09T01:08:36.993Z,98.15
2018-05-09T01:11:12.425Z,98.10
2018-05-09T01:13:40.537Z,97.92
2018-05-09T01:16:08.661Z,97.75
2018-05-09T01:18:36.808Z,97.94
2018-05-09T01:21:04.946Z,98.13
2018-05-09T01:23:33.066Z,98.03
2018-05-09T01:26:01.206Z,98.00
2018-05-09T01:28:29.339Z,97.86
2018-05-09T01:30:57.478Z,97.65
2018-05-09T01:33:25.628Z,97.63
2018-05-09T01:35:53.761Z,97.57
2018-05-09T01:38:21.891Z,97.62
2018-05-09T01:40:50.187Z,97.58
2018-05-09T01:43:18.309Z,97.49
2018-05-09T01:45:47.314Z,97.42
2018-05-09T01:48:15.450Z,97.52
2018-05-09T01:50:43.579Z,97.76
2018-05-09T01:53:11.710Z,97.76
2018-05-09T01:55:39.850Z,97.87
2018-05-09T01:58:07.973Z,98.18
2018-05-09T02:00:36.093Z,98.41
2018-05-09T02:03:04.253Z,98.43
2018-05-09T02:05:32.401Z,98.39
2018-05-09T02:08:00.526Z,98.34
2018-05-09T02:10:28.646Z,98.36
2018-05-09T02:12:56.798Z,98.36
2018-05-09T02:15:24.922Z,98.47
2018-05-09T02:17:53.056Z,98.46
2018-05-09T02:20:21.188Z,98.37
2018-05-09T02:22:49.321Z,98.27
2018-05-09T02:25:17.460Z,98.20
2018-05-09T02:27:45.589Z,97.92
2018-05-09T02:30:13.726Z,98.09
2018-05-09T02:32:41.854Z,98.09
2018-05-09T02:35:09.980Z,97.96
2018-05-09T02:37:38.119Z,98.10
2018-05-09T02:40:06.255Z,98.27
2018-05-09T02:42:34.371Z,98.36
2018-05-09T02:45:02.507Z,98.57
2018-05-09T02:47:30.652Z,98.53
2018-05-09T02:49:58.830Z,98.86
2018-05-09T02:52:26.921Z,99.26
2018-05-09T02:54:55.051Z,99.40
2018-05-09T02:57:23.267Z,99.35
2018-05-09T02:59:51.381Z,99.18
2018-05-09T03:02:20.042Z,98.97
2018-05-09T03:04:48.163Z,98.66
2018-05-09T03:07:16.287Z,98.52
2018-05-09T03:09:44.433Z,98.38
2018-05-09T03:12:12.554Z,98.17
2018-05-09T03:14:40.680Z,98.28
2018-05-09T03:17:08.809Z,98.36
2018-05-09T03:19:36.930Z,98.30
2018-05-09T03:22:05.054Z,98.30
2018-05-09T03:24:33.191Z,98.31
2018-05-09T03:27:01.322Z,98.33
2018-05-09T03:29:29.499Z,98.33
2018-05-09T03:31:57.642Z,98.32
2018-05-09T03:34:25.788Z,98.33
2018-05-09T03:36:53.892Z,98.36
2018-05-09T03:39:22.034Z,98.29
2018-05-09T03:41:50.155Z,98.27
2018-05-09T03:44:18.273Z,98.18
2018-05-09T03:46:46.419Z,98.23
2018-05-09T03:49:14.991Z,98.24
2018-05-09T03:51:43.340Z,98.25
2018-05-09T03:54:11.467Z,98.23
2018-05-09T03:56:39.605Z,98.04
2018-05-09T03:59:07.743Z,97.85
2018-05-09T04:04:47.824Z,98.00
2018-05-09T04:07:27.828Z,97.98
2018-05-09T04:09:55.960Z,97.66
2018-05-09T04:12:24.081Z,97.88
2018-05-09T04:14:52.224Z,98.25
2018-05-09T04:17:20.346Z,98.25
2018-05-09T04:19:48.479Z,97.82
2018-05-09T04:22:16.611Z,97.43
2018-05-09T04:24:44.736Z,97.82
2018-05-09T04:27:12.868Z,97.72
2018-05-09T04:29:41.009Z,97.69
2018-05-09T04:32:09.159Z,97.61
2018-05-09T04:34:37.296Z,97.62
2018-05-09T04:37:05.443Z,97.74
2018-05-09T04:39:33.560Z,97.90
2018-05-09T04:42:01.796Z,97.88
2018-05-09T04:44:29.838Z,97.84
2018-05-09T04:46:57.956Z,97.54
2018-05-09T04:49:26.116Z,97.22
2018-05-09T04:51:54.251Z,96.89
2018-05-09T04:54:22.374Z,96.73
2018-05-09T04:56:50.514Z,96.28
2018-05-09T04:59:18.648Z,96.15
2018-05-09T05:01:46.766Z,95.70
2018-05-09T05:04:14.888Z,94.99
2018-05-09T05:06:43.021Z,94.43
2018-05-09T05:09:11.166Z,94.41
2018-05-09T05:11:39.298Z,94.48
2018-05-09T05:14:07.445Z,94.31
2018-05-09T05:16:35.572Z,94.34
2018-05-09T05:19:03.747Z,93.79
2018-05-09T05:21:31.884Z,93.39
2018-05-09T05:24:00.024Z,92.61
2018-05-09T05:26:28.165Z,91.82
2018-05-09T05:28:56.311Z,92.05
2018-05-09T05:31:24.455Z,92.58
2018-05-09T05:33:52.597Z,92.59
2018-05-09T05:36:20.728Z,92.30
2018-05-09T05:38:48.903Z,90.94
2018-05-09T05:41:17.026Z,91.70
2018-05-09T05:43:45.174Z,90.75
2018-05-09T05:46:13.343Z,89.97
2018-05-09T05:48:41.469Z,90.50
2018-05-09T05:51:10.225Z,91.57
2018-05-09T05:53:38.351Z,91.23
2018-05-09T05:56:06.507Z,91.44
2018-05-09T05:58:34.608Z,89.79
2018-05-09T06:01:02.806Z,89.49
2018-05-09T06:03:30.935Z,89.31
2018-05-09T06:05:59.070Z,89.37
2018-05-09T06:08:27.203Z,90.36
2018-05-09T06:10:55.346Z,89.70
2018-05-09T06:13:23.482Z,89.01
2018-05-09T06:15:51.633Z,86.84
2018-05-09T06:18:19.758Z,85.10
2018-05-09T06:20:47.895Z,86.18
2018-05-09T06:23:16.062Z,86.43
2018-05-09T06:25:44.185Z,85.58
2018-05-09T06:28:12.345Z,85.24
2018-05-09T06:30:40.477Z,84.93
2018-05-09T06:33:08.767Z,84.93
2018-05-09T06:35:36.891Z,84.50
2018-05-09T06:38:05.037Z,84.00
2018-05-09T06:40:33.173Z,84.20
2018-05-09T06:43:01.356Z,83.32
2018-05-09T06:45:29.486Z,85.27
2018-05-09T06:47:57.654Z,84.79
2018-05-09T06:50:25.838Z,84.73
2018-05-09T06:52:53.980Z,83.85
2018-05-09T06:55:22.138Z,83.78
2018-05-09T06:57:50.324Z,82.95
2018-05-09T07:00:18.996Z,83.19
2018-05-09T07:02:47.147Z,83.00
2018-05-09T07:05:15.298Z,82.87
2018-05-09T07:07:43.437Z,81.81
2018-05-09T07:10:11.569Z,81.58
2018-05-09T07:12:39.739Z,81.16
2018-05-09T07:15:07.884Z,82.21
2018-05-09T07:17:36.011Z,82.07
2018-05-09T07:20:04.147Z,81.65
2018-05-09T07:22:32.293Z,80.19
2018-05-09T07:25:00.431Z,81.26
2018-05-09T07:27:28.600Z,81.17
2018-05-09T07:29:56.730Z,78.62
2018-05-09T07:32:24.970Z,80.38
2018-05-09T07:34:53.108Z,80.49
2018-05-09T07:37:21.248Z,78.70
2018-05-09T07:39:49.417Z,79.03
2018-05-09T07:42:17.607Z,79.22
2018-05-09T07:44:45.743Z,79.57
2018-05-09T07:47:13.875Z,77.71
2018-05-09T07:49:43.306Z,78.14
2018-05-09T07:52:11.443Z,77.58
2018-05-09T07:54:39.586Z,77.68
2018-05-09T07:59:48.036Z,75.43
2018-05-09T08:02:16.176Z,77.19
2018-05-09T08:04:44.299Z,78.40
2018-05-09T08:07:12.450Z,76.86
2018-05-09T08:09:40.609Z,76.99
2018-05-09T08:12:08.746Z,77.58
2018-05-09T08:14:36.896Z,76.08
2018-05-09T08:17:05.037Z,76.63
2018-05-09T08:19:33.209Z,75.38
2018-05-09T08:22:01.327Z,75.45
2018-05-09T08:24:29.471Z,74.26
2018-05-09T08:26:57.631Z,73.15
2018-05-09T08:29:25.786Z,72.03
2018-05-09T08:31:53.892Z,70.79
2018-05-09T08:34:22.042Z,66.70
2018-05-09T08:36:50.169Z,69.21
2018-05-09T08:39:18.320Z,68.30
2018-05-09T08:41:46.445Z,68.36
2018-05-09T08:44:14.632Z,67.16
2018-05-09T08:46:43.616Z,66.37
2018-05-09T08:49:11.833Z,66.48
2018-05-09T08:51:39.894Z,64.35
2018-05-09T08:54:08.037Z,66.98
2018-05-09T08:56:36.168Z,66.21
2018-05-09T08:59:04.320Z,64.73
2018-05-09T09:01:32.475Z,64.80
2018-05-09T09:04:00.611Z,63.51
2018-05-09T09:06:28.775Z,63.28
2018-05-09T09:08:56.911Z,61.59
2018-05-09T09:11:25.028Z,61.05
2018-05-09T09:13:53.178Z,60.94
2018-05-09T09:16:21.314Z,59.87
2018-05-09T09:18:49.448Z,59.83
2018-05-09T09:21:17.582Z,59.64
2018-05-09T09:23:45.736Z,59.66
2018-05-09T09:26:13.884Z,60.20
2018-05-09T09:28:42.017Z,58.00
2018-05-09T09:31:10.667Z,59.21
2018-05-09T09:33:38.797Z,58.64
2018-05-09T09:36:06.942Z,58.69
2018-05-09T09:38:35.060Z,54.38
2018-05-09T09:41:03.182Z,56.41
2018-05-09T09:43:31.321Z,57.61
2018-05-09T09:45:59.602Z,57.75
2018-05-09T09:48:27.731Z,57.40
2018-05-09T09:50:55.865Z,55.85
2018-05-09T09:53:24.005Z,57.10
2018-05-09T09:55:52.145Z,54.55
2018-05-09T09:58:20.276Z,55.16
2018-05-09T10:00:48.401Z,53.03
2018-05-09T10:03:16.536Z,52.62
2018-05-09T10:05:44.696Z,53.77
2018-05-09T10:08:12.814Z,53.34
2018-05-09T10:10:40.951Z,51.40
2018-05-09T10:13:09.075Z,54.81
2018-05-09T10:15:37.214Z,53.39
2018-05-09T10:18:05.363Z,52.40
2018-05-09T10:20:33.475Z,54.18
2018-05-09T10:23:01.650Z,50.29
2018-05-09T10:25:29.780Z,49.87
2018-05-09T10:27:57.914Z,49.97
2018-05-09T10:30:26.063Z,48.93
2018-05-09T10:32:54.186Z,47.41
2018-05-09T10:35:22.332Z,48.58
2018-05-09T10:37:50.480Z,49.44
2018-05-09T10:40:18.613Z,49.68
2018-05-09T10:42:47.126Z,51.08
2018-05-09T10:45:15.252Z,53.29
2018-05-09T10:47:43.380Z,51.77
2018-05-09T10:50:11.509Z,51.90
2018-05-09T10:52:39.643Z,50.59
2018-05-09T10:55:07.794Z,50.81
2018-05-09T10:57:35.948Z,50.54
2018-05-09T11:00:04.089Z,50.06
2018-05-09T11:02:32.259Z,52.48
2018-05-09T11:05:00.700Z,55.86
2018-05-09T11:07:28.809Z,56.02
2018-05-09T11:09:56.951Z,55.02
2018-05-09T11:12:25.333Z,55.85
2018-05-09T11:14:53.461Z,53.16
2018-05-09T11:17:21.593Z,50.47
2018-05-09T11:19:50.465Z,50.63
2018-05-09T11:22:18.610Z,49.57
2018-05-09T11:24:47.015Z,49.35
2018-05-09T11:27:15.131Z,46.23
2018-05-09T11:29:43.274Z,46.66
2018-05-09T11:32:11.407Z,46.08
2018-05-09T11:34:39.533Z,46.57
2018-05-09T11:37:07.771Z,46.15
2018-05-09T11:39:35.902Z,47.81
2018-05-09T11:42:04.544Z,46.63
2018-05-09T11:44:32.684Z,47.46
2018-05-09T11:47:00.836Z,47.10
2018-05-09T11:49:28.941Z,44.55
2018-05-09T11:51:57.279Z,45.78
2018-05-09T11:54:25.398Z,47.25
2018-05-09T11:56:53.533Z,46.54
2018-05-09T11:59:21.686Z,46.08
2018-05-09T12:01:49.835Z,47.09
2018-05-09T12:04:17.975Z,47.67
2018-05-09T12:06:46.127Z,48.36
2018-05-09T12:09:14.977Z,48.28
2018-05-09T12:11:43.111Z,46.37
2018-05-09T12:14:11.230Z,47.87
2018-05-09T12:16:39.394Z,47.71
2018-05-09T12:19:07.967Z,48.35
2018-05-09T12:21:36.098Z,46.82
2018-05-09T12:24:04.238Z,47.12
2018-05-09T12:26:32.382Z,47.25
2018-05-09T12:29:00.562Z,46.94
2018-05-09T12:31:28.783Z,47.90
2018-05-09T12:33:56.851Z,48.00
2018-05-09T12:36:25.129Z,46.76
2018-05-09T12:38:53.256Z,47.54
2018-05-09T12:41:21.422Z,47.09
2018-05-09T12:43:49.530Z,45.08
2018-05-09T12:46:17.660Z,47.16
2018-05-09T12:48:45.851Z,43.37
2018-05-09T12:51:13.957Z,46.26
2018-05-09T12:53:42.107Z,43.06
2018-05-09T12:56:10.261Z,43.30
2018-05-09T12:58:38.382Z,43.12
2018-05-09T13:01:06.511Z,42.92
2018-05-09T13:03:34.662Z,43.48
2018-05-09T13:06:02.815Z,40.49
2018-05-09T13:08:30.944Z,41.59
2018-05-09T13:10:59.059Z,40.89
2018-05-09T13:13:27.209Z,40.75
2018-05-09T13:15:55.366Z,39.80
2018-05-09T13:18:23.527Z,39.68
2018-05-09T13:20:51.635Z,37.59
2018-05-09T13:23:19.790Z,39.11
2018-05-09T13:25:48.020Z,40.71
2018-05-09T13:28:16.171Z,39.56
2018-05-09T13:30:44.334Z,37.74
2018-05-09T13:33:12.508Z,37.44
2018-05-09T13:35:40.658Z,39.05
2018-05-09T13:38:08.834Z,37.76
2018-05-09T13:40:37.991Z,39.57
2018-05-09T13:43:06.212Z,40.10
2018-05-09T13:45:37.494Z,40.21
2018-05-09T13:48:05.638Z,38.23
2018-05-09T13:50:33.810Z,37.41
2018-05-09T13:53:02.131Z,38.22
2018-05-09T13:55:30.285Z,38.73
2018-05-09T13:57:58.409Z,36.31
2018-05-09T14:00:26.534Z,36.73
2018-05-09T14:02:54.697Z,37.65
2018-05-09T14:05:22.834Z,36.10
2018-05-09T14:07:50.958Z,36.79
2018-05-09T14:10:19.080Z,36.92
2018-05-09T14:12:47.207Z,37.49
2018-05-09T14:15:15.340Z,36.61
2018-05-09T14:17:43.483Z,36.25
2018-05-09T14:20:11.631Z,36.18
2018-05-09T14:22:39.757Z,37.40
2018-05-09T14:25:07.937Z,35.18
2018-05-09T14:27:36.344Z,35.30
2018-05-09T14:30:04.472Z,36.36
2018-05-09T14:32:32.648Z,38.20
2018-05-09T14:35:00.766Z,37.45
2018-05-09T14:37:28.910Z,39.16
2018-05-09T14:39:57.051Z,42.17
2018-05-09T14:42:25.187Z,42.15
2018-05-09T14:44:53.293Z,44.92
2018-05-09T14:47:21.417Z,44.75
2018-05-09T14:49:49.569Z,44.58
2018-05-09T14:52:18.236Z,43.97
2018-05-09T14:54:46.341Z,43.04
2018-05-09T14:57:14.472Z,43.76
2018-05-09T14:59:42.583Z,43.20
2018-05-09T15:02:10.731Z,45.49
2018-05-09T15:04:38.866Z,44.37
2018-05-09T15:07:07.093Z,42.04
2018-05-09T15:09:35.211Z,43.46
2018-05-09T15:12:03.354Z,44.12
2018-05-09T15:14:31.487Z,44.41
2018-05-09T15:16:59.632Z,46.12
2018-05-09T15:19:27.762Z,46.80
2018-05-09T15:21:55.919Z,47.53
2018-05-09T15:24:24.034Z,45.10
2018-05-09T15:26:52.210Z,44.75
2018-05-09T15:29:20.337Z,45.33
2018-05-09T15:31:48.619Z,43.68
2018-05-09T15:34:16.739Z,41.51
2018-05-09T15:36:44.861Z,41.09
2018-05-09T15:39:13.051Z,41.59
2018-05-09T15:41:41.157Z,42.33
2018-05-09T15:44:09.290Z,42.94
2018-05-09T15:46:37.430Z,44.29
2018-05-09T15:49:05.576Z,45.28
2018-05-09T15:51:33.717Z,45.88
2018-05-09T15:54:01.822Z,46.83
2018-05-09T15:56:29.967Z,47.22
2018-05-09T15:58:58.120Z,46.73
2018-05-09T16:01:26.258Z,45.42
2018-05-09T16:03:54.397Z,44.98
2018-05-09T16:06:22.526Z,46.61
2018-05-09T16:08:50.649Z,46.38
2018-05-09T16:11:18.786Z,45.67
2018-05-09T16:13:46.908Z,45.52
2018-05-09T16:16:15.041Z,42.92
2018-05-09T16:18:43.205Z,43.38
2018-05-09T16:21:11.335Z,43.07
2018-05-09T16:23:39.468Z,43.54
2018-05-09T16:26:07.599Z,43.75
2018-05-09T16:28:35.748Z,44.54
2018-05-09T16:31:03.854Z,44.90
2018-05-09T16:33:31.997Z,44.99
2018-05-09T16:36:00.119Z,44.51
2018-05-09T16:38:28.251Z,44.90
2018-05-09T16:40:56.369Z,45.44
2018-05-09T16:43:24.492Z,49.51
2018-05-09T16:45:52.634Z,51.17
2018-05-09T16:48:20.770Z,52.91
2018-05-09T16:50:48.894Z,53.17
2018-05-09T16:53:17.039Z,53.79
2018-05-09T16:55:45.184Z,54.53
2018-05-09T16:58:13.329Z,53.78
2018-05-09T17:00:41.442Z,54.49
2018-05-09T17:03:10.229Z,54.89
2018-05-09T17:05:38.386Z,55.25
2018-05-09T17:08:06.562Z,55.95
2018-05-09T17:10:34.701Z,56.81
2018-05-09T17:13:02.876Z,56.81
2018-05-09T17:15:31.085Z,57.16
2018-05-09T17:17:59.134Z,57.46
2018-05-09T17:20:27.264Z,58.05
2018-05-09T17:22:55.411Z,58.79
2018-05-09T17:25:23.538Z,59.63
2018-05-09T17:27:51.671Z,60.04
2018-05-09T17:30:19.868Z,60.55
2018-05-09T17:32:47.958Z,60.93
2018-05-09T17:35:16.102Z,60.56
2018-05-09T17:37:44.250Z,61.10
2018-05-09T17:40:12.382Z,61.49
2018-05-09T17:42:40.567Z,61.76
2018-05-09T17:45:08.700Z,61.93
2018-05-09T17:47:36.852Z,61.55
2018-05-09T17:50:04.982Z,62.66
2018-05-09T17:52:33.114Z,62.33
2018-05-09T17:55:01.250Z,62.52
2018-05-09T17:57:29.415Z,62.82
2018-05-09T17:59:57.530Z,63.52
2018-05-09T18:02:25.663Z,63.58
2018-05-09T18:04:53.785Z,63.67
2018-05-09T18:07:21.917Z,63.95
2018-05-09T18:09:50.068Z,64.68
2018-05-09T18:12:18.197Z,64.66
2018-05-09T18:14:46.366Z,64.92
2018-05-09T18:17:14.499Z,64.85
2018-05-09T18:19:42.627Z,64.69
2018-05-09T18:22:10.767Z,64.76
2018-05-09T18:24:41.912Z,65.08
2018-05-09T18:27:11.382Z,65.03
2018-05-09T18:29:39.510Z,65.51
2018-05-09T18:32:07.699Z,65.77
2018-05-09T18:34:35.837Z,65.96
2018-05-09T18:37:03.967Z,66.21
2018-05-09T18:39:32.131Z,66.51
2018-05-09T18:42:00.271Z,66.76
2018-05-09T18:44:28.389Z,66.91
2018-05-09T18:46:56.519Z,67.34
2018-05-09T18:49:24.645Z,67.31
2018-05-09T18:51:52.794Z,68.00
2018-05-09T18:54:20.978Z,68.06
2018-05-09T18:56:49.105Z,68.70
2018-05-09T18:59:17.237Z,68.93
2018-05-09T19:01:45.489Z,68.73
2018-05-09T19:04:13.623Z,68.43
2018-05-09T19:06:41.750Z,69.01
2018-05-09T19:09:09.888Z,69.29
2018-05-09T19:11:38.024Z,69.67
2018-05-09T19:14:06.137Z,69.95
2018-05-09T19:16:35.150Z,70.21
2018-05-09T19:19:03.330Z,70.10
2018-05-09T19:21:31.464Z,70.48
2018-05-09T19:23:59.605Z,70.42
2018-05-09T19:26:27.727Z,70.65
2018-05-09T19:28:55.851Z,70.82
2018-05-09T19:31:24.004Z,70.40
2018-05-09T19:33:52.148Z,70.51
2018-05-09T19:36:20.271Z,70.66
2018-05-09T19:38:48.405Z,70.83
2018-05-09T19:41:16.539Z,70.90
2018-05-09T19:43:44.664Z,70.96
2018-05-09T19:46:12.802Z,71.08
2018-05-09T19:48:40.941Z,70.91
2018-05-09T19:51:10.050Z,70.98
2018-05-09T19:53:38.200Z,71.39
2018-05-09T19:56:06.347Z,71.75
2018-05-09T19:58:34.491Z,72.05
2018-05-09T20:01:02.631Z,72.16
2018-05-09T20:03:30.756Z,72.51
2018-05-09T20:05:58.885Z,72.49
2018-05-09T20:08:27.071Z,72.61
2018-05-09T20:10:55.160Z,72.83
2018-05-09T20:13:23.286Z,73.05
2018-05-09T20:15:51.419Z,72.98
2018-05-09T20:18:19.564Z,73.31
2018-05-09T20:20:47.691Z,73.49
2018-05-09T20:23:15.829Z,73.87
2018-05-09T20:25:43.958Z,74.30
2018-05-09T20:28:12.116Z,74.53
2018-05-09T20:30:45.895Z,74.72
2018-05-09T20:33:14.035Z,75.35
2018-05-09T20:35:42.167Z,76.02
2018-05-09T20:38:10.290Z,75.84
2018-05-09T20:40:38.430Z,75.84
2018-05-09T20:43:07.848Z,76.57
2018-05-09T20:45:36.001Z,76.82
2018-05-09T20:48:04.137Z,76.69
2018-05-09T20:50:32.287Z,76.73
2018-05-09T20:53:00.471Z,76.76
2018-05-09T20:55:29.315Z,76.95
2018-05-09T20:57:57.450Z,77.39
2018-05-09T21:00:25.594Z,77.24
2018-05-09T21:02:53.746Z,77.10
2018-05-09T21:05:21.860Z,77.51
2018-05-09T21:07:56.731Z,77.73
2018-05-09T21:10:24.864Z,77.88
2018-05-09T21:12:52.992Z,78.15
2018-05-09T21:15:21.135Z,78.60
2018-05-09T21:17:49.266Z,79.02
2018-05-09T21:20:17.394Z,79.08
2018-05-09T21:22:45.535Z,79.16
2018-05-09T21:25:13.675Z,79.35
2018-05-09T21:27:41.879Z,79.27
2018-05-09T21:30:09.973Z,79.65
2018-05-09T21:32:38.113Z,79.77
2018-05-09T21:35:06.287Z,79.61
2018-05-09T21:37:34.400Z,79.75
2018-05-09T21:40:02.556Z,80.04
2018-05-09T21:42:30.716Z,80.23
2018-05-09T21:44:58.840Z,80.18
2018-05-09T21:47:26.975Z,80.35
2018-05-09T21:49:55.107Z,80.62
2018-05-09T21:52:23.240Z,81.39
2018-05-09T21:54:51.361Z,82.00
2018-05-09T21:57:19.501Z,81.98
2018-05-09T21:59:47.636Z,82.12
2018-05-09T22:02:15.773Z,81.92
2018-05-09T22:04:43.898Z,82.14
2018-05-09T22:07:12.053Z,82.58
2018-05-09T22:09:40.188Z,82.91
2018-05-09T22:12:08.316Z,83.05
2018-05-09T22:14:36.459Z,83.67
2018-05-09T22:17:04.587Z,83.66
2018-05-09T22:19:32.729Z,83.77
2018-05-09T22:22:00.863Z,83.95
2018-05-09T22:24:28.991Z,84.03
2018-05-09T22:26:57.125Z,84.00
2018-05-09T22:29:25.267Z,83.69
2018-05-09T22:31:53.385Z,84.17
2018-05-09T22:34:21.526Z,84.35
2018-05-09T22:36:50.480Z,84.57
2018-05-09T22:39:18.633Z,84.69
2018-05-09T22:41:46.759Z,85.00
2018-05-09T22:44:14.887Z,84.92
2018-05-09T22:46:43.024Z,85.49
2018-05-09T22:49:11.153Z,85.64
2018-05-09T22:51:39.287Z,85.84
2018-05-09T22:54:07.418Z,86.01
2018-05-09T22:56:35.555Z,86.16
2018-05-09T22:59:03.712Z,87.80
2018-05-09T23:01:31.859Z,88.05
2018-05-09T23:03:59.974Z,87.69
2018-05-09T23:06:28.794Z,88.41
2018-05-09T23:08:56.905Z,88.22
2018-05-09T23:11:25.034Z,88.24
2018-05-09T23:13:53.317Z,88.68
2018-05-09T23:16:21.436Z,89.24
2018-05-09T23:18:49.564Z,89.44
2018-05-09T23:21:17.712Z,89.31
2018-05-09T23:23:45.897Z,89.51
2018-05-09T23:26:13.990Z,89.27
2018-05-09T23:28:42.168Z,89.20
2018-05-09T23:31:10.755Z,89.54
2018-05-09T23:33:38.880Z,90.16
2018-05-09T23:36:07.026Z,90.23
2018-05-09T23:38:35.162Z,90.34
2018-05-09T23:41:03.269Z,90.48
2018-05-09T23:43:31.450Z,90.75
2018-05-09T23:45:59.574Z,90.64
2018-05-09T23:48:27.710Z,90.24
2018-05-09T23:50:55.852Z,89.89
2018-05-09T23:53:24.009Z,89.79
2018-05-09T23:55:52.162Z,89.64
2018-05-09T23:58:20.295Z,89.61
